Detall de PIREP

Printer-friendly versionPDF version

[2017/02/25 10:44:00]
Flight IATA:CT1004
Pilot Number:012
Company ICAO:CAT
Aircraft Type:BE20/A
PAX:6
Departing Airport: EBLG
Destination Airport: LEBL
Alternate Airport:LERS
Online: VATSIM
Route:LNO UN852 DIVKO UN975 BISBA
Flight Level:F310
No Slew and time accel
No pause
Crash detect
Detect pilot in Cockpit between each 30 and 45 minutes
10:44 Zero fuel Weight: 9791 Lbs, Fuel Weight: 1847 Lbs
10:44 VATSIM:EBLG 251020Z 20014KT CAVOK 05/01 Q1020 NOSIG
10:44 VATSIM:LEBL 251030Z 35004KT 290V100 9999 FEW030 11/03 Q1021 NOSIG
10:44 MWC 2016 BARCELONA
10:46 Parking Brakes off
10:48 Take-off
10:48 Take off Weight: 11624 Lbs
10:48 Wind: 199º @ 014 Knots Heading: 218º
10:48 POS N50º 38´ 27´´ E005º 27´ 04´´
10:48 Gear Up: 121 Knots
10:48 Flaps:1 at 121 Knots
10:49 Flaps:0 at 112 Knots
11:03 Wind:313º@029 Knots Heading: 162º Ground Speed: 229 Knots Altitude 17808 ft
11:16 TOC
11:16 Fuel Weight: 1506 Lb
11:18 Wind:325º@047 Knots Heading: 158º Ground Speed: 303 Knots Altitude 31279 ft
11:33 Wind:338º@042 Knots Heading: 184º Ground Speed: 314 Knots Altitude 31289 ft
11:48 Wind:349º@041 Knots Heading: 227º Ground Speed: 301 Knots Altitude 31256 ft
12:03 Wind:001º@040 Knots Heading: 175º Ground Speed: 318 Knots Altitude 31256 ft
12:18 Wind:012º@045 Knots Heading: 203º Ground Speed: 323 Knots Altitude 31190 ft
12:33 Wind:012º@033 Knots Heading: 222º Ground Speed: 308 Knots Altitude 31177 ft
12:42 TOD
12:42 Fuel Weight: 706 Lb
12:48 Wind:012º@023 Knots Heading: 256º Ground Speed: 320 Knots Altitude 22749 ft
13:03 Wind:246º@003 Knots Heading: 221º Ground Speed: 235 Knots Altitude 3671 ft
13:05 Flaps:1 at 184 Knots
13:05 Gear Down: 181 Knots
13:06 Flaps:2 at 141 Knots
13:08 TouchDown:Rate -33 ft/min Speed: 95 Knots
13:08 VATSIM:LEBL 251230Z 15007KT 120V210 9999 FEW030 13/05 Q1021 NOSIG
13:08 Land
13:08 Wind:171º@007 Knots
13:08 Heading: 224º
13:08 Flight Duration: 02:20
13:08 Landing Weight: 10296 Lbs
13:08 POS N41º 17´ 54´´ E002º 04´ 59´´
13:11 Parking brakes on
13:11 Block to Block Duration: 02:25
13:11 Final Fuel: 498 Lbls
13:11 Spent Fuel: 1349 Lbls
13:11 Flight Length: 662 NM
13:11 TOD Land Length: 112 NM

Exportar CSV

Powered by Drupal - Modified by Danger4k